createdAt,value
2019-04-20T00:01:50.687Z,3.00
2019-04-20T00:04:55.028Z,2.87
2019-04-20T00:08:01.218Z,3.70
2019-04-20T00:11:17.695Z,3.00
2019-04-20T00:14:19.221Z,3.20
2019-04-20T00:17:19.999Z,3.30
2019-04-20T00:20:29.302Z,3.40
2019-04-20T00:23:51.441Z,3.27
2019-04-20T00:27:18.198Z,2.83
2019-04-20T00:30:25.983Z,3.40
2019-04-20T00:33:25.772Z,3.07
2019-04-20T00:36:13.867Z,3.43
2019-04-20T00:39:20.237Z,3.40
2019-04-20T00:42:33.946Z,3.00
2019-04-20T00:45:33.714Z,3.30
2019-04-20T00:48:47.351Z,3.77
2019-04-20T00:52:07.499Z,3.90
2019-04-20T00:54:49.439Z,3.83
2019-04-20T00:57:59.886Z,3.70
2019-04-20T01:01:20.549Z,3.60
2019-04-20T01:04:23.826Z,3.63
2019-04-20T01:07:39.407Z,3.50
2019-04-20T01:10:41.652Z,3.40
2019-04-20T01:13:45.965Z,3.27
2019-04-20T01:16:54.917Z,3.43
2019-04-20T01:19:54.102Z,3.37
2019-04-20T01:23:04.862Z,3.37
2019-04-20T01:26:10.968Z,3.20
2019-04-20T01:29:21.736Z,3.60
2019-04-20T01:32:27.839Z,3.07
2019-04-20T01:35:39.517Z,3.73
2019-04-20T01:38:44.643Z,3.10
2019-04-20T01:41:35.168Z,2.97
2019-04-20T01:44:44.071Z,3.33
2019-04-20T01:47:50.539Z,3.50
2019-04-20T01:50:59.672Z,3.60
2019-04-20T01:54:16.020Z,3.27
2019-04-20T01:57:53.384Z,3.23
2019-04-20T02:00:57.314Z,3.03
2019-04-20T02:04:11.931Z,2.90
2019-04-20T02:07:13.644Z,3.27
2019-04-20T02:10:19.983Z,2.90
2019-04-20T02:13:26.194Z,3.30
2019-04-20T02:16:38.297Z,3.33
2019-04-20T02:19:57.222Z,3.50
2019-04-20T02:22:56.922Z,3.40
2019-04-20T02:25:48.026Z,3.33
2019-04-20T02:29:20.255Z,3.13
2019-04-20T02:32:26.546Z,3.57
2019-04-20T02:36:04.836Z,3.10
2019-04-20T02:39:22.126Z,3.70
2019-04-20T02:45:27.825Z,3.00
2019-04-20T02:48:25.289Z,3.20
2019-04-20T02:51:38.987Z,3.03
2019-04-20T02:54:42.194Z,3.33
2019-04-20T02:57:47.355Z,3.60
2019-04-20T03:00:44.823Z,3.10
2019-04-20T03:03:30.702Z,4.03
2019-04-20T03:06:39.546Z,3.23
2019-04-20T03:09:56.578Z,3.33
2019-04-20T03:13:05.395Z,3.50
2019-04-20T03:16:04.123Z,3.40
2019-04-20T03:19:14.183Z,3.77
2019-04-20T03:22:23.602Z,3.93
2019-04-20T03:25:53.426Z,3.43
2019-04-20T03:29:12.796Z,3.20
2019-04-20T03:36:00.381Z,3.53
2019-04-20T03:38:45.113Z,3.73
2019-04-20T03:41:36.279Z,3.63
2019-04-20T03:44:35.728Z,4.27
2019-04-20T03:47:54.334Z,3.70
2019-04-20T03:51:04.629Z,3.77
2019-04-20T03:54:15.977Z,3.73
2019-04-20T03:57:36.944Z,3.47
2019-04-20T04:00:58.295Z,4.53
2019-04-20T04:04:38.841Z,4.07
2019-04-20T04:07:33.475Z,4.20
2019-04-20T04:10:48.536Z,4.20
2019-04-20T04:13:35.553Z,3.90
2019-04-20T04:16:47.786Z,4.20
2019-04-20T04:19:55.808Z,4.40
2019-04-20T04:23:10.281Z,4.30
2019-04-20T04:26:20.404Z,4.70
2019-04-20T04:29:28.817Z,4.50
2019-04-20T04:32:45.428Z,4.13
2019-04-20T04:35:28.069Z,4.50
2019-04-20T04:38:41.904Z,4.67
2019-04-20T04:41:59.914Z,4.87
2019-04-20T04:44:43.259Z,4.30
2019-04-20T04:47:39.018Z,4.40
2019-04-20T04:50:52.172Z,4.60
2019-04-20T04:53:58.079Z,4.47
2019-04-20T04:56:54.908Z,4.67
2019-04-20T04:59:59.515Z,4.00
2019-04-20T05:03:26.898Z,4.80
2019-04-20T05:06:32.069Z,4.77
2019-04-20T05:09:23.805Z,4.83
2019-04-20T05:12:31.358Z,4.30
2019-04-20T05:15:48.423Z,4.57
2019-04-20T05:19:03.095Z,4.30
2019-04-20T05:22:17.844Z,5.13
2019-04-20T05:25:59.627Z,4.47
2019-04-20T05:28:53.220Z,4.83
2019-04-20T05:31:57.225Z,5.50
2019-04-20T05:35:25.495Z,5.20
2019-04-20T05:38:32.535Z,5.50
2019-04-20T05:41:26.948Z,5.77
2019-04-20T05:44:42.795Z,6.43
2019-04-20T05:47:43.164Z,6.00
2019-04-20T05:50:49.385Z,6.97
2019-04-20T05:53:57.420Z,6.70
2019-04-20T05:57:08.873Z,6.57
2019-04-20T06:03:11.013Z,7.40
2019-04-20T06:06:23.548Z,6.77
2019-04-20T06:09:27.781Z,6.40
2019-04-20T06:12:35.806Z,6.33
2019-04-20T06:15:50.554Z,6.67
2019-04-20T06:18:58.430Z,6.30
2019-04-20T06:22:14.859Z,6.70
2019-04-20T06:28:24.595Z,6.40
2019-04-20T06:31:30.019Z,6.23
2019-04-20T06:37:53.761Z,6.03
2019-04-20T06:41:01.117Z,6.23
2019-04-20T06:44:02.145Z,6.20
2019-04-20T06:50:08.602Z,5.53
2019-04-20T06:53:45.516Z,5.73
2019-04-20T06:56:42.636Z,5.20
2019-04-20T06:59:43.030Z,5.87
2019-04-20T07:02:56.360Z,5.53
2019-04-20T07:06:06.630Z,5.97
2019-04-20T07:09:06.192Z,5.97
2019-04-20T07:12:12.846Z,5.57
2019-04-20T07:15:17.424Z,5.70
2019-04-20T07:18:31.315Z,5.03
2019-04-20T07:22:01.860Z,5.70
2019-04-20T07:24:59.037Z,4.90
2019-04-20T07:28:02.223Z,4.90
2019-04-20T07:31:01.836Z,5.30
2019-04-20T07:34:11.612Z,5.00
2019-04-20T07:40:24.402Z,4.77
2019-04-20T07:43:30.011Z,5.30
2019-04-20T07:46:47.140Z,5.07
2019-04-20T07:49:41.408Z,5.00
2019-04-20T07:52:38.735Z,5.33
2019-04-20T07:55:59.301Z,5.17
2019-04-20T07:58:50.043Z,4.77
2019-04-20T08:02:23.576Z,5.10
2019-04-20T08:05:36.742Z,5.00
2019-04-20T08:08:43.794Z,5.13
2019-04-20T08:12:02.738Z,5.30
2019-04-20T08:15:04.975Z,5.07
2019-04-20T08:18:06.415Z,5.07
2019-04-20T08:21:16.734Z,4.80
2019-04-20T08:24:17.086Z,5.10
2019-04-20T08:27:13.154Z,4.93
2019-04-20T08:30:41.399Z,5.23
2019-04-20T08:34:03.103Z,5.37
2019-04-20T08:36:56.707Z,5.13
2019-04-20T08:43:26.509Z,5.27
2019-04-20T08:46:16.282Z,5.50
2019-04-20T08:49:26.428Z,5.20
2019-04-20T08:52:47.107Z,5.30
2019-04-20T08:55:29.670Z,5.40
2019-04-20T08:58:18.632Z,5.23
2019-04-20T09:01:28.258Z,5.53
2019-04-20T09:04:37.333Z,5.73
2019-04-20T09:07:47.655Z,5.07
2019-04-20T09:11:02.679Z,4.83
2019-04-20T09:13:51.909Z,5.63
2019-04-20T09:17:05.898Z,4.90
2019-04-20T09:20:14.471Z,5.40
2019-04-20T09:23:31.562Z,6.03
2019-04-20T09:26:41.343Z,5.33
2019-04-20T09:29:36.825Z,4.90
2019-04-20T09:33:14.666Z,5.07
2019-04-20T09:36:17.931Z,4.97
2019-04-20T09:39:35.171Z,5.27
2019-04-20T09:42:39.291Z,4.70
2019-04-20T09:45:48.574Z,4.33
2019-04-20T09:48:57.009Z,4.60
2019-04-20T09:52:10.923Z,4.30
2019-04-20T09:55:14.661Z,4.37
2019-04-20T09:58:19.215Z,4.13
2019-04-20T10:01:25.964Z,4.10
2019-04-20T10:04:19.559Z,4.53
2019-04-20T10:07:26.108Z,3.77
2019-04-20T10:10:35.947Z,4.20
2019-04-20T10:13:36.357Z,4.20
2019-04-20T10:16:41.988Z,4.60
2019-04-20T10:19:46.680Z,4.30
2019-04-20T10:22:51.943Z,3.87
2019-04-20T10:25:56.567Z,3.77
2019-04-20T10:29:01.560Z,3.73
2019-04-20T10:32:08.823Z,3.70
2019-04-20T10:35:14.742Z,3.60
2019-04-20T10:38:21.521Z,3.80
2019-04-20T10:41:35.958Z,4.03
2019-04-20T10:44:32.521Z,4.40
2019-04-20T10:47:37.225Z,3.90
2019-04-20T10:50:41.144Z,3.70
2019-04-20T10:53:46.454Z,4.20
2019-04-20T10:56:51.840Z,3.77
2019-04-20T10:59:55.928Z,4.40
2019-04-20T11:02:59.858Z,4.20
2019-04-20T11:06:04.817Z,3.80
2019-04-20T11:09:09.358Z,4.07
2019-04-20T11:12:14.462Z,4.20
2019-04-20T11:15:18.768Z,4.33
2019-04-20T11:18:22.716Z,3.83
2019-04-20T11:21:26.595Z,4.13
2019-04-20T11:24:30.524Z,4.70
2019-04-20T11:27:36.314Z,3.83
2019-04-20T11:30:40.506Z,4.70
2019-04-20T11:33:44.364Z,4.57
2019-04-20T11:36:48.920Z,5.37
2019-04-20T11:39:52.947Z,4.50
2019-04-20T11:42:57.507Z,4.60
2019-04-20T11:46:02.786Z,5.07
2019-04-20T11:49:07.915Z,5.00
2019-04-20T11:52:13.280Z,4.77
2019-04-20T11:55:18.242Z,5.53
2019-04-20T11:58:22.193Z,5.40
2019-04-20T12:01:51.993Z,5.00
2019-04-20T12:05:10.271Z,4.90
2019-04-20T12:08:05.087Z,4.93
2019-04-20T12:11:22.706Z,5.10
2019-04-20T12:14:15.093Z,4.80
2019-04-20T12:17:19.629Z,4.87
2019-04-20T12:20:24.983Z,5.20
2019-04-20T12:23:28.936Z,4.73
2019-04-20T12:26:33.072Z,4.47
2019-04-20T12:29:38.385Z,4.43
2019-04-20T12:32:46.721Z,4.53
2019-04-20T12:35:49.990Z,4.40
2019-04-20T12:38:55.020Z,4.77
2019-04-20T12:42:03.886Z,3.93
2019-04-20T12:45:05.981Z,4.20
2019-04-20T12:48:11.368Z,3.60
2019-04-20T12:51:15.601Z,4.00
2019-04-20T12:54:20.650Z,3.97
2019-04-20T12:57:25.075Z,4.20
2019-04-20T13:00:49.611Z,4.40
2019-04-20T13:03:55.256Z,3.97
2019-04-20T13:06:59.683Z,4.43
2019-04-20T13:10:05.710Z,4.10
2019-04-20T13:13:22.730Z,3.73
2019-04-20T13:16:36.464Z,4.00
2019-04-20T13:19:41.530Z,4.03
2019-04-20T13:22:46.610Z,3.67
2019-04-20T13:25:50.859Z,4.07
2019-04-20T13:28:55.180Z,4.10
2019-04-20T13:32:00.170Z,4.13
2019-04-20T13:35:04.597Z,3.90
2019-04-20T13:38:09.969Z,4.50
2019-04-20T13:41:15.681Z,4.40
2019-04-20T13:44:20.105Z,4.40
2019-04-20T13:47:25.079Z,3.93
2019-04-20T13:50:29.625Z,4.00
2019-04-20T13:53:35.035Z,4.40
2019-04-20T13:56:39.673Z,4.20
2019-04-20T13:59:48.094Z,4.47
2019-04-20T14:02:58.630Z,4.80
2019-04-20T14:06:02.990Z,4.30
2019-04-20T14:09:09.779Z,3.80
2019-04-20T14:12:22.470Z,4.20
2019-04-20T14:15:20.293Z,4.27
2019-04-20T14:18:25.057Z,4.90
2019-04-20T14:21:30.206Z,4.47
2019-04-20T14:24:35.013Z,4.80
2019-04-20T14:27:40.251Z,4.57
2019-04-20T14:30:45.776Z,4.90
2019-04-20T14:33:50.862Z,4.80
2019-04-20T14:36:55.190Z,4.20
2019-04-20T14:40:00.499Z,4.10
2019-04-20T14:43:04.520Z,4.13
2019-04-20T14:46:08.774Z,4.17
2019-04-20T14:49:12.686Z,4.80
2019-04-20T14:52:17.654Z,4.30
2019-04-20T14:55:22.561Z,3.90
2019-04-20T14:59:05.244Z,4.17
2019-04-20T15:02:15.376Z,4.57
2019-04-20T15:05:19.458Z,4.13
2019-04-20T15:08:24.875Z,3.93
2019-04-20T15:11:29.028Z,4.60
2019-04-20T15:14:32.840Z,4.43
2019-04-20T15:17:43.717Z,5.13
2019-04-20T15:20:51.325Z,4.77
2019-04-20T15:23:55.588Z,4.57
2019-04-20T15:27:00.511Z,4.80
2019-04-20T15:30:06.613Z,4.70
2019-04-20T15:33:10.496Z,5.30
2019-04-20T15:36:14.439Z,4.80
2019-04-20T15:39:20.770Z,4.77
2019-04-20T15:42:25.371Z,4.67
2019-04-20T15:45:29.572Z,4.30
2019-04-20T15:48:34.308Z,4.80
2019-04-20T15:51:39.654Z,5.07
2019-04-20T15:54:45.471Z,5.17
2019-04-20T15:57:50.477Z,5.13
2019-04-20T16:00:54.691Z,5.60
2019-04-20T16:04:03.606Z,5.30
2019-04-20T16:07:08.615Z,4.90
2019-04-20T16:10:13.001Z,5.57
2019-04-20T16:13:26.055Z,5.20
2019-04-20T16:16:23.867Z,5.37
2019-04-20T16:19:40.799Z,5.33
2019-04-20T16:22:34.382Z,5.53
2019-04-20T16:25:45.663Z,5.23
2019-04-20T16:28:50.137Z,4.80
2019-04-20T16:31:54.671Z,5.03
2019-04-20T16:35:00.253Z,4.87
2019-04-20T16:38:04.495Z,4.60
2019-04-20T16:41:08.467Z,5.10
2019-04-20T16:44:13.435Z,5.03
2019-04-20T16:47:18.483Z,4.77
2019-04-20T16:50:22.732Z,4.43
2019-04-20T16:53:26.928Z,4.53
2019-04-20T16:56:30.811Z,4.37
2019-04-20T16:59:40.080Z,4.57
2019-04-20T17:02:42.397Z,4.90
2019-04-20T17:05:49.566Z,4.43
2019-04-20T17:08:52.282Z,4.40
2019-04-20T17:11:57.391Z,4.23
2019-04-20T17:15:01.798Z,4.00
2019-04-20T17:18:06.010Z,4.20
2019-04-20T17:21:16.558Z,4.30
2019-04-20T17:24:15.619Z,3.80
2019-04-20T17:27:48.872Z,4.10
2019-04-20T17:31:03.086Z,4.37
2019-04-20T17:34:26.930Z,3.83
2019-04-20T17:37:16.244Z,4.00
2019-04-20T17:40:41.873Z,4.40
2019-04-20T17:43:37.176Z,3.70
2019-04-20T17:46:44.935Z,3.70
2019-04-20T17:50:00.728Z,4.07
2019-04-20T17:53:03.833Z,4.23
2019-04-20T17:55:54.806Z,3.90
2019-04-20T17:58:58.898Z,3.80
2019-04-20T18:02:47.417Z,4.20
2019-04-20T18:05:55.787Z,3.30
2019-04-20T18:08:56.415Z,3.50
2019-04-20T18:11:51.139Z,3.80
2019-04-20T18:15:10.315Z,3.67
2019-04-20T18:18:32.405Z,3.37
2019-04-20T18:21:32.940Z,4.07
2019-04-20T18:25:02.584Z,3.90
2019-04-20T18:27:59.925Z,3.73
2019-04-20T18:30:59.289Z,3.77
2019-04-20T18:34:08.957Z,3.90
2019-04-20T18:37:13.425Z,3.67
2019-04-20T18:40:28.027Z,4.23
2019-04-20T18:43:27.461Z,4.20
2019-04-20T18:46:55.520Z,4.30
2019-04-20T18:49:48.626Z,4.67
2019-04-20T18:52:42.140Z,8.00
2019-04-20T18:55:50.469Z,13.93
2019-04-20T18:58:51.810Z,27.73
2019-04-20T19:01:57.030Z,51.10
2019-04-20T19:05:03.557Z,21.17
2019-04-20T19:08:11.545Z,12.60
2019-04-20T19:11:18.041Z,9.50
2019-04-20T19:14:40.792Z,12.40
2019-04-20T19:18:06.934Z,8.23
2019-04-20T19:21:05.146Z,8.77
2019-04-20T19:24:12.648Z,6.77
2019-04-20T19:27:17.065Z,9.03
2019-04-20T19:30:34.384Z,6.50
2019-04-20T19:33:42.184Z,5.53
2019-04-20T19:36:38.970Z,6.10
2019-04-20T19:39:53.238Z,5.50
2019-04-20T19:42:59.206Z,5.70
2019-04-20T19:46:29.740Z,5.43
2019-04-20T19:49:07.951Z,5.27
2019-04-20T19:52:31.009Z,5.60
2019-04-20T19:55:24.413Z,6.67
2019-04-20T19:58:28.213Z,6.07
2019-04-20T20:01:22.028Z,6.20
2019-04-20T20:04:26.294Z,5.97
2019-04-20T20:07:37.980Z,5.90
2019-04-20T20:10:40.496Z,6.57
2019-04-20T20:13:47.962Z,5.50
2019-04-20T20:17:04.134Z,5.87
2019-04-20T20:20:20.018Z,6.10
2019-04-20T20:23:00.690Z,7.73
2019-04-20T20:26:07.173Z,6.93
2019-04-20T20:29:22.825Z,10.17
2019-04-20T20:32:37.482Z,8.27
2019-04-20T20:35:28.614Z,6.73
2019-04-20T20:38:36.951Z,6.40
2019-04-20T20:41:48.976Z,5.97
2019-04-20T20:44:51.725Z,5.30
2019-04-20T20:48:05.050Z,5.50
2019-04-20T20:51:10.453Z,5.23
2019-04-20T20:54:09.229Z,5.40
2019-04-20T20:57:12.704Z,5.43
2019-04-20T21:00:25.198Z,6.20
2019-04-20T21:03:25.612Z,5.63
2019-04-20T21:06:22.659Z,10.00
2019-04-20T21:09:27.195Z,7.07
2019-04-20T21:12:31.149Z,6.20
2019-04-20T21:15:35.371Z,6.43
2019-04-20T21:18:55.637Z,9.40
2019-04-20T21:21:54.734Z,12.90
2019-04-20T21:24:53.075Z,10.43
2019-04-20T21:27:57.024Z,9.60
2019-04-20T21:31:10.488Z,9.37
2019-04-20T21:34:12.646Z,8.93
2019-04-20T21:37:17.160Z,14.30
2019-04-20T21:40:27.839Z,17.53
2019-04-20T21:43:29.538Z,12.20
2019-04-20T21:46:38.914Z,9.40
2019-04-20T21:49:45.963Z,8.03
2019-04-20T21:52:45.115Z,7.00
2019-04-20T21:55:46.053Z,6.90
2019-04-20T21:58:56.664Z,6.13
2019-04-20T22:02:04.372Z,6.30
2019-04-20T22:05:01.413Z,5.67
2019-04-20T22:08:10.584Z,5.83
2019-04-20T22:11:11.825Z,6.23
2019-04-20T22:14:19.495Z,5.80
2019-04-20T22:17:27.578Z,5.73
2019-04-20T22:20:36.630Z,5.57
2019-04-20T22:23:53.076Z,5.53
2019-04-20T22:26:52.614Z,5.67
2019-04-20T22:29:46.213Z,5.60
2019-04-20T22:32:53.225Z,5.97
2019-04-20T22:36:00.902Z,5.83
2019-04-20T22:39:11.559Z,5.80
2019-04-20T22:42:17.906Z,5.50
2019-04-20T22:45:21.261Z,5.70
2019-04-20T22:48:25.170Z,5.80
2019-04-20T22:51:43.147Z,6.20
2019-04-20T22:54:52.158Z,6.10
2019-04-20T22:57:53.448Z,6.20
2019-04-20T23:00:52.041Z,6.53
2019-04-20T23:03:52.734Z,6.70
2019-04-20T23:06:57.338Z,6.23
2019-04-20T23:10:03.409Z,6.03
2019-04-20T23:13:07.833Z,6.50
2019-04-20T23:16:11.729Z,6.40
2019-04-20T23:19:30.052Z,5.97
2019-04-20T23:22:22.967Z,6.10
2019-04-20T23:25:27.153Z,5.37
2019-04-20T23:28:31.328Z,4.83
2019-04-20T23:31:39.031Z,4.97
2019-04-20T23:34:42.679Z,4.97
2019-04-20T23:37:46.681Z,5.00
2019-04-20T23:40:52.092Z,5.67
2019-04-20T23:44:18.500Z,5.13
2019-04-20T23:47:39.756Z,5.03
2019-04-20T23:50:58.227Z,5.27
2019-04-20T23:53:58.611Z,5.10
2019-04-20T23:56:55.662Z,5.30
